Time;durP1;ratioP1;P1;durP2;ratioP2;P2;SDS_P1;SDS_P2;PMS_P1;PMS_P2;Temp;Humidity;BMP_temperature;BMP_pressure;BME280_temperature;BME280_humidity;BME280_pressure;Samples;Min_cycle;Max_cycle;Signal;HPM_P1;HPM_P2
2022/11/24 00:01:31;;;;;;;29.70;16.90;;;;;;;-0.99;90.84;100191.28;7397696;19;20014;-67
2022/11/24 00:04:00;;;;;;;31.45;16.58;;;;;;;-1.00;91.08;100194.69;7399486;19;20019;-69
2022/11/24 00:06:30;;;;;;;28.95;16.52;;;;;;;-1.02;90.93;100193.81;7398992;19;20022;-68
2022/11/24 00:09:02;;;;;;;31.23;17.10;;;;;;;-1.03;91.01;100194.66;7398872;19;20019;-69
2022/11/24 00:11:32;;;;;;;28.98;16.02;;;;;;;-1.05;91.26;100196.31;7397093;19;20501;-68
2022/11/24 00:14:01;;;;;;;26.25;16.02;;;;;;;-1.06;91.05;100192.00;7397097;19;20023;-68
2022/11/24 00:16:31;;;;;;;27.45;15.57;;;;;;;-1.08;91.25;100188.56;7396181;19;20018;-69
2022/11/24 00:19:01;;;;;;;29.85;15.35;;;;;;;-1.10;91.18;100187.66;7396457;19;20019;-68
2022/11/24 00:21:31;;;;;;;29.13;15.68;;;;;;;-1.12;91.36;100189.34;7397132;19;20022;-67
2022/11/24 00:24:03;;;;;;;29.27;17.10;;;;;;;-1.15;91.38;100191.03;7397976;19;20018;-70
2022/11/24 00:26:33;;;;;;;26.35;15.90;;;;;;;-1.16;91.31;100191.84;7398700;19;20035;-69
2022/11/24 00:29:04;;;;;;;27.85;16.80;;;;;;;-1.18;91.49;100193.53;7397833;19;20015;-69
2022/11/24 00:31:33;;;;;;;26.73;16.70;;;;;;;-1.19;91.44;100191.81;7396541;19;20423;-69
2022/11/24 00:34:03;;;;;;;28.70;16.92;;;;;;;-1.19;91.38;100188.38;7398101;19;20018;-68
2022/11/24 00:36:34;;;;;;;28.75;17.38;;;;;;;-1.20;91.53;100196.91;7397620;19;20371;-69
2022/11/24 00:39:07;;;;;;;29.90;17.25;;;;;;;-1.22;91.61;100190.91;7395911;19;20082;-69
2022/11/24 00:41:36;;;;;;;32.35;15.80;;;;;;;-1.23;91.38;100191.72;7396706;19;20031;-68
2022/11/24 00:44:05;;;;;;;26.33;15.50;;;;;;;-1.25;91.60;100190.81;7395860;19;20036;-67
2022/11/24 00:46:34;;;;;;;27.80;15.98;;;;;;;-1.27;91.41;100195.94;7397494;19;20018;-69
2022/11/24 00:49:03;;;;;;;33.38;18.52;;;;;;;-1.29;91.45;100200.19;7397526;19;20439;-68
2022/11/24 00:51:32;;;;;;;25.85;16.08;;;;;;;-1.31;91.69;100197.59;7396238;19;20011;-68
2022/11/24 00:54:01;;;;;;;29.45;17.27;;;;;;;-1.31;91.53;100199.31;7395545;19;20027;-68
2022/11/24 00:56:32;;;;;;;28.70;17.58;;;;;;;-1.32;91.58;100202.72;7396238;19;20074;-68
2022/11/24 00:59:00;;;;;;;28.15;17.77;;;;;;;-1.33;91.63;100203.56;7396356;19;20023;-68
2022/11/24 01:01:31;;;;;;;32.45;18.27;;;;;;;-1.34;91.81;100202.72;7395506;19;20022;-68
2022/11/24 01:04:00;;;;;;;29.73;18.27;;;;;;;-1.35;91.77;100203.53;7397564;19;20018;-69
2022/11/24 01:06:29;;;;;;;31.20;18.38;;;;;;;-1.34;92.00;100204.41;7395557;19;20039;-69
2022/11/24 01:08:59;;;;;;;35.90;18.52;;;;;;;-1.33;92.10;100203.56;7395161;19;20022;-68
2022/11/24 01:11:59;;;;;;;33.33;18.73;;;;;;;-1.33;91.90;100208.72;7395661;19;20022;-68
2022/11/24 01:14:21;;;;;;;30.02;17.33;;;;;;;-1.34;91.93;100205.28;7396275;19;20014;-68
2022/11/24 01:16:49;;;;;;;34.22;18.35;;;;;;;-1.33;91.91;100203.56;7397071;19;20066;-68
2022/11/24 01:19:18;;;;;;;32.30;18.92;;;;;;;-1.34;92.20;100209.53;7395441;19;20078;-67
2022/11/24 01:21:46;;;;;;;34.92;18.52;;;;;;;-1.35;92.15;100213.84;7394991;19;20042;-68
2022/11/24 01:24:15;;;;;;;38.85;19.48;;;;;;;-1.35;92.19;100216.41;7394265;19;20022;-67
2022/11/24 01:26:44;;;;;;;34.17;19.17;;;;;;;-1.35;92.41;100223.28;7395907;19;20437;-69
2022/11/24 01:29:13;;;;;;;34.13;19.30;;;;;;;-1.37;92.33;100224.94;7394624;19;20018;-68
2022/11/24 01:31:44;;;;;;;31.60;18.20;;;;;;;-1.37;92.26;100217.22;7394347;19;20086;-68
2022/11/24 01:34:13;;;;;;;32.35;17.98;;;;;;;-1.40;92.38;100214.56;7396568;19;20035;-68
2022/11/24 01:36:41;;;;;;;30.25;17.33;;;;;;;-1.40;92.42;100219.72;7394465;19;20011;-68
2022/11/24 01:39:10;;;;;;;30.73;18.02;;;;;;;-1.43;92.58;100225.69;7394371;19;20552;-68
2022/11/24 01:41:38;;;;;;;36.30;18.27;;;;;;;-1.43;92.66;100225.69;7394689;19;20079;-67
2022/11/24 01:44:22;;;;;;;31.75;17.48;;;;;;;-1.44;92.60;100223.97;7394190;19;20022;-68
2022/11/24 01:46:56;;;;;;;37.60;19.13;;;;;;;-1.45;92.45;100229.06;7393844;19;20484;-70
2022/11/24 01:49:29;;;;;;;36.45;18.67;;;;;;;-1.51;92.72;100216.97;7396182;19;20031;-70
2022/11/24 01:52:01;;;;;;;30.88;17.75;;;;;;;-1.50;92.42;100222.13;7393427;19;20033;-69
2022/11/24 01:54:34;;;;;;;30.33;18.25;;;;;;;-1.52;92.46;100231.50;7395245;19;20484;-69
2022/11/24 01:57:09;;;;;;;30.05;17.88;;;;;;;-1.52;92.69;100231.50;7394676;19;20419;-69
2022/11/24 01:59:38;;;;;;;28.55;17.05;;;;;;;-1.54;92.73;100234.91;7394358;19;20026;-69
2022/11/24 02:02:10;;;;;;;36.13;18.50;;;;;;;-1.57;92.78;100238.28;7393063;19;20430;-69
2022/11/24 02:04:40;;;;;;;32.17;18.13;;;;;;;-1.58;92.80;100239.16;7395690;19;20035;-69
2022/11/24 02:07:10;;;;;;;32.67;18.88;;;;;;;-1.59;92.56;100244.22;7393427;19;20011;-69
2022/11/24 02:09:44;;;;;;;29.15;16.92;;;;;;;-1.62;92.76;100242.47;7395600;19;20082;-69
2022/11/24 02:12:13;;;;;;;30.70;17.50;;;;;;;-1.63;92.57;100235.63;7393485;19;20091;-69
2022/11/24 02:14:43;;;;;;;29.17;17.30;;;;;;;-1.66;92.74;100238.09;7395774;19;20014;-67
2022/11/24 02:17:14;;;;;;;31.80;17.85;;;;;;;-1.67;92.82;100244.09;7395300;19;20499;-68
2022/11/24 02:19:51;;;;;;;29.80;16.45;;;;;;;-1.69;92.67;100245.78;7399816;19;20081;-67
2022/11/24 02:22:28;;;;;;;29.85;17.45;;;;;;;-1.72;92.62;100233.72;7399680;19;20029;-67
2022/11/24 02:25:01;;;;;;;28.90;16.48;;;;;;;-1.75;92.55;100235.38;7402720;19;20090;-67
2022/11/24 02:27:32;;;;;;;32.63;16.05;;;;;;;-1.77;92.53;100240.44;7402318;19;20418;-68
2022/11/24 02:30:01;;;;;;;30.40;17.10;;;;;;;-1.79;92.53;100237.00;7399779;19;20035;-67
2022/11/24 02:32:31;;;;;;;29.08;17.08;;;;;;;-1.82;92.78;100242.94;7401719;19;20066;-67
2022/11/24 02:35:03;;;;;;;28.77;16.67;;;;;;;-1.85;92.45;100245.44;7399230;19;20010;-67
2022/11/24 02:37:32;;;;;;;33.25;17.92;;;;;;;-1.86;92.49;100248.88;7399154;19;20011;-67
2022/11/24 02:40:00;;;;;;;31.08;17.50;;;;;;;-1.89;92.62;100243.66;7399423;19;20019;-67
2022/11/24 02:42:35;;;;;;;28.63;16.15;;;;;;;-1.90;92.60;100244.47;7398483;19;20536;-68
2022/11/24 02:45:04;;;;;;;30.35;17.23;;;;;;;-1.90;92.88;100249.63;7399063;19;20014;-67
2022/11/24 02:47:32;;;;;;;31.23;17.83;;;;;;;-1.91;92.61;100247.88;7401256;19;20501;-67
2022/11/24 02:50:01;;;;;;;35.95;17.98;;;;;;;-1.92;92.84;100250.44;7401604;19;20035;-67
2022/11/24 02:52:30;;;;;;;31.75;17.90;;;;;;;-1.94;92.72;100242.69;7401469;19;20011;-68
2022/11/24 02:54:58;;;;;;;29.40;17.75;;;;;;;-1.95;92.81;100240.09;7398747;19;20026;-67
2022/11/24 02:57:27;;;;;;;31.10;17.83;;;;;;;-1.97;92.77;100242.63;7399727;19;20028;-67
2022/11/24 02:59:58;;;;;;;26.27;15.88;;;;;;;-1.97;92.61;100252.91;7398464;19;20066;-67
2022/11/24 03:02:26;;;;;;;26.13;15.18;;;;;;;-1.99;92.68;100247.72;7398410;19;20026;-68
2022/11/24 03:04:55;;;;;;;31.95;17.65;;;;;;;-2.02;92.55;100251.94;7401001;19;20039;-67
2022/11/24 03:07:23;;;;;;;29.92;16.50;;;;;;;-2.03;92.68;100256.22;7397992;19;20528;-67
2022/11/24 03:09:52;;;;;;;26.92;16.25;;;;;;;-2.04;92.48;100258.75;7401730;19;20021;-68
2022/11/24 03:12:20;;;;;;;27.27;15.68;;;;;;;-2.05;92.46;100257.00;7399744;19;20032;-68
2022/11/24 03:14:48;;;;;;;32.10;17.10;;;;;;;-2.08;92.62;100256.97;7399000;19;20426;-67
2022/11/24 03:17:20;;;;;;;27.55;15.95;;;;;;;-2.11;92.44;100259.44;7400141;19;20018;-68
2022/11/24 03:19:48;;;;;;;29.90;17.00;;;;;;;-2.14;92.65;100250.84;7399431;19;20028;-67
2022/11/24 03:22:16;;;;;;;29.45;17.90;;;;;;;-2.15;92.45;100253.38;7399011;19;20018;-67
2022/11/24 03:24:45;;;;;;;37.83;18.13;;;;;;;-2.22;92.61;100247.22;7397899;19;20022;-67
2022/11/24 03:27:13;;;;;;;25.95;16.05;;;;;;;-2.18;92.64;100253.31;7399888;19;20031;-69
2022/11/24 03:29:49;;;;;;;28.90;17.25;;;;;;;-2.20;92.46;100258.44;7396659;19;20026;-68
2022/11/24 03:32:20;;;;;;;24.65;15.88;;;;;;;-2.21;92.59;100266.97;7397451;19;20079;-68
2022/11/24 03:34:48;;;;;;;26.98;15.98;;;;;;;-2.23;92.31;100270.34;7399526;19;20031;-68
2022/11/24 03:37:17;;;;;;;28.63;16.33;;;;;;;-2.26;92.23;100266.00;7399250;19;20022;-67
2022/11/24 03:39:52;;;;;;;30.90;16.92;;;;;;;-2.26;92.33;100265.09;7397768;19;20018;-67
2022/11/24 03:42:21;;;;;;;31.83;18.20;;;;;;;-2.27;92.32;100269.41;7397969;19;20027;-67
2022/11/24 03:44:49;;;;;;;28.90;16.85;;;;;;;-2.28;92.48;100265.09;7399794;19;20019;-67
2022/11/24 03:47:20;;;;;;;32.05;18.48;;;;;;;-2.29;92.36;100260.78;7399551;19;20048;-67
2022/11/24 03:49:49;;;;;;;31.02;16.95;;;;;;;-2.31;92.48;100262.47;7399232;19;20442;-67
2022/11/24 03:52:17;;;;;;;29.08;16.80;;;;;;;-2.31;92.29;100265.03;7397257;19;20032;-68
2022/11/24 03:54:46;;;;;;;28.80;16.42;;;;;;;-2.33;92.50;100264.09;7398859;19;20379;-69
2022/11/24 03:57:15;;;;;;;27.52;16.02;;;;;;;-2.34;92.30;100268.41;7397883;19;20006;-68
2022/11/24 03:59:43;;;;;;;29.30;17.15;;;;;;;-2.35;92.29;100271.78;7397887;19;20342;-67
2022/11/24 04:02:12;;;;;;;29.05;16.02;;;;;;;-2.35;92.18;100283.75;7397348;19;20021;-67
2022/11/24 04:04:46;;;;;;;22.58;15.18;;;;;;;-2.37;92.31;100282.88;7396973;19;20035;-68
2022/11/24 04:07:14;;;;;;;25.67;15.50;;;;;;;-2.38;92.32;100288.84;7395998;19;20477;-67
2022/11/24 04:09:43;;;;;;;27.83;16.88;;;;;;;-2.44;92.32;100284.41;7398393;19;20018;-67
2022/11/24 04:14:52;;;;;;;32.17;17.50;;;;;;;-2.41;92.42;100292.19;7398868;19;20030;-68
2022/11/24 04:17:21;;;;;;;27.27;16.63;;;;;;;-2.41;92.33;100292.19;7398319;19;20031;-68
2022/11/24 04:19:52;;;;;;;30.88;16.92;;;;;;;-2.40;92.33;100295.63;7397123;19;20020;-67
2022/11/24 04:22:20;;;;;;;27.67;16.27;;;;;;;-2.39;92.46;100297.38;7396518;19;20022;-68
2022/11/24 04:24:49;;;;;;;27.02;15.85;;;;;;;-2.41;92.27;100292.19;7398026;19;20488;-69
2022/11/24 04:27:17;;;;;;;26.25;16.63;;;;;;;-2.41;92.22;100304.16;7398108;19;20022;-68
2022/11/24 04:29:46;;;;;;;27.55;15.68;;;;;;;-2.42;92.45;100303.31;7397681;19;20074;-67
2022/11/24 04:32:14;;;;;;;24.08;15.80;;;;;;;-2.42;92.41;100312.72;7395913;19;20036;-67
2022/11/24 04:34:43;;;;;;;27.35;15.75;;;;;;;-2.42;92.50;100307.59;7397524;19;20015;-68
2022/11/24 04:37:14;;;;;;;27.92;16.67;;;;;;;-2.43;92.44;100314.41;7397673;19;20014;-67
2022/11/24 04:39:43;;;;;;;30.13;17.17;;;;;;;-2.44;92.29;100314.38;7395382;19;20031;-66
2022/11/24 04:42:12;;;;;;;33.25;18.35;;;;;;;-2.41;92.48;100327.28;7395835;19;20035;-67
2022/11/24 04:44:40;;;;;;;31.40;18.33;;;;;;;-2.42;92.31;100320.44;7397401;19;20433;-67
2022/11/24 04:47:09;;;;;;;24.92;17.00;;;;;;;-2.43;92.22;100328.97;7395293;19;20018;-67
2022/11/24 04:49:37;;;;;;;27.75;17.27;;;;;;;-2.42;92.33;100335.84;7397604;19;20014;-68
2022/11/24 04:52:06;;;;;;;30.90;18.48;;;;;;;-2.41;92.23;100337.56;7395177;19;20023;-67
2022/11/24 04:54:38;;;;;;;28.08;17.52;;;;;;;-2.43;92.18;100339.25;7396931;19;20032;-68
2022/11/24 04:57:06;;;;;;;28.30;16.65;;;;;;;-2.43;92.35;100344.38;7394584;19;20479;-68
2022/11/24 04:59:35;;;;;;;27.88;17.13;;;;;;;-2.42;92.34;100346.97;7395954;19;20024;-69
2022/11/24 05:02:03;;;;;;;29.10;17.25;;;;;;;-2.43;92.19;100355.50;7395247;19;20015;-67
2022/11/24 05:04:32;;;;;;;30.70;21.15;;;;;;;-2.44;92.12;100350.34;7396793;19;20018;-67
2022/11/24 05:07:00;;;;;;;32.22;21.80;;;;;;;-2.44;92.32;100352.91;7394553;19;20010;-68
2022/11/24 05:09:29;;;;;;;37.22;22.67;;;;;;;-2.43;92.31;100358.09;7396223;19;20031;-67
2022/11/24 05:12:00;;;;;;;34.33;21.17;;;;;;;-2.42;92.37;100356.41;7394585;19;20018;-67
2022/11/24 05:14:30;;;;;;;35.97;21.25;;;;;;;-2.43;92.21;100357.22;7397938;19;20094;-68
2022/11/24 05:16:58;;;;;;;38.65;21.50;;;;;;;-2.42;92.23;100364.97;7396451;19;20039;-68
2022/11/24 05:19:26;;;;;;;35.17;19.65;;;;;;;-2.40;92.45;100362.44;7393799;19;20011;-68
2022/11/24 05:21:55;;;;;;;28.08;17.63;;;;;;;-2.40;92.21;100367.56;7394451;19;20011;-68
2022/11/24 05:24:23;;;;;;;30.00;18.17;;;;;;;-2.40;92.35;100375.28;7393923;19;20014;-67
2022/11/24 05:26:52;;;;;;;28.77;18.20;;;;;;;-2.40;92.13;100376.16;7395928;19;20039;-68
2022/11/24 05:29:23;;;;;;;29.65;18.65;;;;;;;-2.40;92.29;100376.16;7395860;19;20014;-68
2022/11/24 05:31:51;;;;;;;31.88;21.63;;;;;;;-2.40;92.07;100386.44;7393871;19;20032;-68
2022/11/24 05:34:20;;;;;;;31.08;20.15;;;;;;;-2.39;92.32;100384.72;7395262;19;20022;-67
2022/11/24 05:36:55;;;;;;;35.70;21.02;;;;;;;-2.37;92.34;100385.66;7395188;19;20017;-68
2022/11/24 05:39:23;;;;;;;36.67;21.50;;;;;;;-2.35;92.15;100382.28;7394529;19;20417;-68
2022/11/24 05:41:52;;;;;;;34.08;21.20;;;;;;;-2.33;92.39;100380.59;7394142;19;20379;-69
2022/11/24 05:44:23;;;;;;;35.17;20.55;;;;;;;-2.32;92.31;100377.22;7393877;19;20079;-68
2022/11/24 05:46:51;;;;;;;30.17;19.40;;;;;;;-2.29;92.28;100381.56;7394943;19;20007;-69
2022/11/24 05:49:20;;;;;;;35.10;19.95;;;;;;;-2.26;92.40;100384.22;7393202;19;20018;-68
2022/11/24 05:51:48;;;;;;;33.05;20.50;;;;;;;-2.22;92.48;100388.59;7393354;19;20048;-68
2022/11/24 05:54:17;;;;;;;31.75;19.48;;;;;;;-2.19;92.29;100391.22;7395108;19;20015;-68
2022/11/24 05:56:45;;;;;;;29.30;18.05;;;;;;;-2.17;92.33;100402.41;7394936;19;20022;-68
2022/11/24 05:59:14;;;;;;;30.40;18.83;;;;;;;-2.13;92.22;100396.50;7392138;19;20027;-68
2022/11/24 06:01:45;;;;;;;28.92;17.35;;;;;;;-2.08;92.17;100398.34;7393259;19;20082;-68
2022/11/24 06:04:13;;;;;;;31.73;18.80;;;;;;;-2.04;92.29;100402.72;7394362;19;20015;-69
2022/11/24 06:06:42;;;;;;;26.67;17.75;;;;;;;-2.00;92.22;100401.97;7394225;19;20035;-67
2022/11/24 06:09:10;;;;;;;33.22;18.63;;;;;;;-1.96;92.55;100406.34;7393637;19;20038;-67
2022/11/24 06:11:39;;;;;;;28.80;17.73;;;;;;;-1.92;92.31;100413.31;7392605;19;20367;-68
2022/11/24 06:14:07;;;;;;;29.90;17.85;;;;;;;-1.87;92.52;100409.13;7393916;19;20094;-68
2022/11/24 06:16:36;;;;;;;32.33;19.85;;;;;;;-1.84;92.36;100411.78;7393548;19;20014;-67
2022/11/24 06:19:07;;;;;;;27.95;18.33;;;;;;;-1.80;92.67;100408.44;7391794;19;20031;-68
2022/11/24 06:21:35;;;;;;;32.33;19.58;;;;;;;-1.75;92.62;100410.25;7391552;19;20031;-68
2022/11/24 06:24:04;;;;;;;32.67;19.70;;;;;;;-1.69;92.76;100408.69;7392372;19;20019;-68
2022/11/24 06:26:32;;;;;;;35.47;19.40;;;;;;;-1.64;92.77;100416.53;7391510;19;20027;-67
2022/11/24 06:29:01;;;;;;;30.67;20.00;;;;;;;-1.60;92.66;100418.31;7393488;19;20024;-68
2022/11/24 06:31:29;;;;;;;37.60;21.88;;;;;;;-1.54;92.68;100417.56;7392219;19;20018;-69
2022/11/24 06:33:58;;;;;;;35.55;22.05;;;;;;;-1.50;92.75;100417.69;7391660;19;20014;-68
2022/11/24 06:36:29;;;;;;;35.08;21.95;;;;;;;-1.45;92.92;100422.06;7393498;19;20015;-67
2022/11/24 06:38:58;;;;;;;37.30;22.60;;;;;;;-1.41;92.90;100419.59;7393619;19;20022;-68
2022/11/24 06:41:26;;;;;;;37.15;23.30;;;;;;;-1.36;92.83;100425.72;7391181;19;20035;-68
2022/11/24 06:43:55;;;;;;;40.70;23.55;;;;;;;-1.33;93.12;100428.38;7390866;19;20488;-68
2022/11/24 06:46:24;;;;;;;41.35;23.52;;;;;;;-1.27;93.21;100426.75;7392947;19;20032;-68
2022/11/24 06:48:53;;;;;;;41.00;24.13;;;;;;;-1.23;92.94;100433.69;7393199;19;20092;-68
2022/11/24 06:51:22;;;;;;;42.30;24.52;;;;;;;-1.20;93.17;100426.91;7391708;19;20021;-68
2022/11/24 06:53:53;;;;;;;37.50;22.13;;;;;;;-1.15;93.04;100432.13;7393182;19;20022;-68
2022/11/24 06:56:22;;;;;;;36.35;21.73;;;;;;;-1.12;93.07;100434.78;7393391;19;20032;-68
2022/11/24 06:58:52;;;;;;;35.38;21.08;;;;;;;-1.09;93.17;100432.28;7391480;19;20032;-68
2022/11/24 07:01:23;;;;;;;31.75;20.08;;;;;;;-1.06;93.36;100436.63;7391910;19;20036;-68
2022/11/24 07:03:53;;;;;;;31.08;19.67;;;;;;;-1.02;93.41;100438.44;7392904;19;20015;-68
2022/11/24 07:06:22;;;;;;;32.55;21.20;;;;;;;-0.99;93.30;100449.69;7397700;19;20018;-68
2022/11/24 07:08:54;;;;;;;33.10;22.13;;;;;;;-0.95;93.38;100453.16;7400473;19;20014;-68
2022/11/24 07:11:25;;;;;;;35.83;22.48;;;;;;;-0.91;93.41;100452.41;7398581;19;20028;-67
2022/11/24 07:13:53;;;;;;;38.85;22.85;;;;;;;-0.88;93.66;100457.59;7398457;19;20015;-68
2022/11/24 07:16:23;;;;;;;43.65;24.17;;;;;;;-0.83;93.53;100463.72;7397361;19;20487;-67
2022/11/24 07:18:53;;;;;;;41.50;24.15;;;;;;;-0.78;93.49;100466.41;7398263;19;20035;-67
2022/11/24 07:21:23;;;;;;;39.47;25.50;;;;;;;-0.76;93.68;100469.00;7396539;19;20444;-67
2022/11/24 07:23:56;;;;;;;40.25;25.20;;;;;;;-0.69;93.69;100470.88;7399064;19;20023;-67
2022/11/24 07:26:25;;;;;;;38.10;25.67;;;;;;;-0.66;93.56;100479.53;7396738;19;20018;-68
2022/11/24 07:28:54;;;;;;;39.35;24.50;;;;;;;-0.63;93.89;100468.41;7397111;19;20027;-68
2022/11/24 07:31:24;;;;;;;48.47;27.40;;;;;;;-0.54;94.36;100478.88;7398151;19;20023;-67
2022/11/24 07:33:53;;;;;;;50.17;28.25;;;;;;;-0.41;94.75;100479.13;7399236;19;20523;-67
2022/11/24 07:36:22;;;;;;;52.25;28.73;;;;;;;-0.27;95.96;100477.66;7398877;19;20528;-67
2022/11/24 07:38:51;;;;;;;50.28;28.77;;;;;;;-0.08;96.00;100484.00;7400053;19;20031;-67
2022/11/24 07:41:22;;;;;;;44.78;25.63;;;;;;;0.04;94.59;100487.66;7396643;19;20018;-69
2022/11/24 07:43:51;;;;;;;45.08;27.98;;;;;;;0.10;94.20;100486.06;7397562;19;20022;-67
2022/11/24 07:46:21;;;;;;;37.55;23.83;;;;;;;0.15;94.05;100491.28;7396330;19;20362;-68
2022/11/24 07:48:50;;;;;;;231.90;117.05;;;;;;;0.18;94.24;100491.34;7398400;19;20023;-69
2022/11/24 07:51:18;;;;;;;109.70;58.65;;;;;;;0.20;94.35;100489.66;7396034;19;20033;-69
2022/11/24 07:53:47;;;;;;;48.72;28.90;;;;;;;0.23;94.43;100494.88;7398526;19;20015;-68
2022/11/24 07:56:16;;;;;;;41.67;26.05;;;;;;;0.27;94.26;100490.63;7398239;19;20020;-69
2022/11/24 07:58:47;;;;;;;49.67;25.58;;;;;;;0.30;94.44;100494.13;7395864;19;20015;-68
2022/11/24 08:01:18;;;;;;;51.65;24.65;;;;;;;0.34;94.55;100492.44;7396096;19;20035;-69
2022/11/24 08:03:47;;;;;;;70.97;23.67;;;;;;;0.35;94.35;100494.19;7398995;19;20019;-68
2022/11/24 08:06:17;;;;;;;75.30;24.10;;;;;;;0.38;94.58;100489.09;7395958;19;20022;-69
2022/11/24 08:08:46;;;;;;;52.50;22.75;;;;;;;0.43;94.46;100492.63;7398190;19;20399;-68
2022/11/24 08:11:16;;;;;;;41.75;21.42;;;;;;;0.48;94.27;100500.41;7397405;19;20382;-68
2022/11/24 08:13:47;;;;;;;37.45;21.67;;;;;;;0.50;94.31;100496.16;7397917;19;20010;-68
2022/11/24 08:16:18;;;;;;;40.20;23.20;;;;;;;0.53;94.31;100505.66;7395372;19;20036;-69
2022/11/24 08:18:51;;;;;;;37.15;22.38;;;;;;;0.58;94.45;100504.91;7398275;19;20488;-68
2022/11/24 08:21:21;;;;;;;34.60;22.80;;;;;;;0.62;94.60;100503.19;7396696;19;20035;-67
2022/11/24 08:23:50;;;;;;;47.67;27.45;;;;;;;0.64;94.47;100504.09;7398594;19;20023;-69
2022/11/24 08:26:19;;;;;;;44.75;25.23;;;;;;;0.69;94.14;100511.94;7397271;19;20488;-68
2022/11/24 08:28:54;;;;;;;38.30;23.55;;;;;;;0.74;94.16;100516.31;7395836;19;20018;-69
2022/11/24 08:31:23;;;;;;;40.35;23.13;;;;;;;0.78;94.29;100520.69;7396757;19;20019;-67
2022/11/24 08:33:52;;;;;;;40.13;24.33;;;;;;;0.82;94.17;100524.16;7397647;19;20035;-69
2022/11/24 08:36:21;;;;;;;39.15;23.23;;;;;;;0.87;94.17;100519.91;7395261;19;20035;-67
2022/11/24 08:38:50;;;;;;;41.67;23.83;;;;;;;0.92;94.19;100520.88;7395636;19;20027;-67
2022/11/24 08:41:19;;;;;;;49.58;25.17;;;;;;;0.96;94.17;100527.81;7395756;19;20019;-69
2022/11/24 08:43:50;;;;;;;46.83;26.65;;;;;;;1.00;94.27;100527.84;7397178;19;20023;-68
2022/11/24 08:46:20;;;;;;;43.78;25.08;;;;;;;1.04;94.28;100522.75;7396583;19;20484;-67
2022/11/24 08:48:50;;;;;;;42.40;25.33;;;;;;;1.09;94.27;100536.59;7394882;19;20707;-68
2022/11/24 08:51:20;;;;;;;50.50;28.20;;;;;;;1.14;94.22;100542.69;7396491;19;20029;-68
2022/11/24 08:53:49;;;;;;;57.20;35.53;;;;;;;1.20;94.09;100541.03;7395666;19;20014;-68
2022/11/24 08:56:17;;;;;;;54.75;31.27;;;;;;;1.26;94.14;100544.59;7396528;19;20480;-68
2022/11/24 08:58:46;;;;;;;45.78;27.35;;;;;;;1.31;94.31;100531.72;7395319;19;20015;-67
2022/11/24 09:01:19;;;;;;;45.45;25.80;;;;;;;1.37;94.17;100526.63;7395148;19;20501;-68
2022/11/24 09:03:49;;;;;;;37.17;22.73;;;;;;;1.43;94.01;100525.84;7395543;19;20118;-69
2022/11/24 09:06:21;;;;;;;40.53;24.52;;;;;;;1.49;93.98;100525.03;7397052;19;20022;-68
2022/11/24 09:08:56;;;;;;;40.22;22.77;;;;;;;1.56;94.21;100532.88;7397193;19;20044;-69
2022/11/24 09:11:25;;;;;;;38.15;23.23;;;;;;;1.62;94.16;100532.97;7395463;19;20035;-66
2022/11/24 09:13:54;;;;;;;49.80;28.00;;;;;;;1.65;94.03;100528.69;7395946;19;20018;-69
2022/11/24 09:16:27;;;;;;;38.40;23.05;;;;;;;1.72;93.98;100536.53;7394592;19;20047;-70
2022/11/24 09:18:57;;;;;;;39.80;23.67;;;;;;;1.77;94.30;100536.59;7395333;19;20014;-69
2022/11/24 09:21:25;;;;;;;39.75;22.95;;;;;;;1.84;94.25;100545.28;7395129;19;20024;-67
2022/11/24 09:23:56;;;;;;;41.15;23.80;;;;;;;1.89;94.23;100538.44;7395622;19;20019;-68
2022/11/24 09:26:26;;;;;;;35.53;22.60;;;;;;;1.94;94.01;100535.03;7395399;19;20010;-68
2022/11/24 09:29:02;;;;;;;37.25;23.83;;;;;;;2.02;94.02;100545.47;7396359;19;20014;-68
2022/11/24 09:31:36;;;;;;;37.00;22.25;;;;;;;2.07;94.07;100546.38;7395123;19;20039;-71
2022/11/24 09:34:06;;;;;;;40.20;23.00;;;;;;;2.14;94.00;100552.47;7394744;19;20018;-70
2022/11/24 09:36:35;;;;;;;38.40;23.13;;;;;;;2.22;93.76;100560.31;7393642;19;20015;-69
2022/11/24 09:39:04;;;;;;;37.97;24.20;;;;;;;2.26;93.79;100549.13;7395904;19;20042;-71
2022/11/24 09:42:01;;;;;;;38.03;22.75;;;;;;;2.33;93.94;100543.16;7394344;19;20022;-70
2022/11/24 09:44:54;;;;;;;38.42;24.33;;;;;;;2.39;93.96;100540.63;7395529;19;20488;-70
2022/11/24 09:47:36;;;;;;;93.10;48.97;;;;;;;2.43;93.79;100547.56;7394053;19;20022;-71
2022/11/24 09:50:07;;;;;;;75.53;41.50;;;;;;;2.51;93.60;100544.19;7395779;19;20027;-69
2022/11/24 09:52:42;;;;;;;75.03;41.45;;;;;;;2.55;93.83;100541.63;7395598;19;20031;-70
2022/11/24 09:55:27;;;;;;;50.88;30.15;;;;;;;2.64;93.74;100542.53;7393251;19;20011;-69
2022/11/24 09:58:07;;;;;;;46.28;26.45;;;;;;;2.68;93.71;100550.38;7395004;19;20035;-70
2022/11/24 10:00:36;;;;;;;38.72;23.10;;;;;;;2.76;93.75;100553.00;7395053;19;20035;-70
2022/11/24 10:03:08;;;;;;;44.55;23.85;;;;;;;2.81;93.77;100553.91;7393148;19;20489;-69
2022/11/24 10:05:38;;;;;;;37.75;22.98;;;;;;;2.86;93.76;100549.63;7395543;19;20032;-70
2022/11/24 10:08:21;;;;;;;34.97;22.42;;;;;;;2.91;93.58;100547.91;7395118;19;20014;-70
2022/11/24 10:10:56;;;;;;;38.70;23.13;;;;;;;2.95;93.76;100543.63;7394870;19;20019;-71
2022/11/24 10:13:37;;;;;;;36.22;22.65;;;;;;;3.02;93.81;100548.00;7395066;19;20086;-69
2022/11/24 10:16:12;;;;;;;40.60;22.88;;;;;;;3.10;93.69;100551.50;7395056;19;20086;-69
2022/11/24 10:18:59;;;;;;;35.90;23.77;;;;;;;3.16;93.64;100555.84;7394505;19;20485;-70
2022/11/24 10:21:44;;;;;;;40.28;23.90;;;;;;;3.26;93.84;100564.53;7393136;19;20014;-71
2022/11/24 10:24:40;;;;;;;38.28;22.85;;;;;;;3.33;93.64;100563.72;7393858;19;20435;-70
2022/11/24 10:27:18;;;;;;;34.33;21.48;;;;;;;3.40;93.68;100568.09;7395047;19;20010;-70
2022/11/24 10:29:51;;;;;;;42.80;23.48;;;;;;;3.49;93.69;100574.16;7394563;19;20090;-70
2022/11/24 10:32:23;;;;;;;50.38;29.20;;;;;;;3.55;93.80;100577.66;7396104;19;20014;-70
2022/11/24 10:34:59;;;;;;;41.08;25.27;;;;;;;3.64;93.71;100579.44;7397897;19;20018;-69
2022/11/24 10:37:32;;;;;;;38.67;24.08;;;;;;;3.72;93.96;100576.88;7394915;19;20095;-68
2022/11/24 10:40:07;;;;;;;33.15;21.08;;;;;;;3.81;93.95;100581.22;7401004;19;20018;-70
2022/11/24 10:42:36;;;;;;;99.68;54.67;;;;;;;3.89;93.94;100574.31;7399198;19;20023;-71
2022/11/24 10:45:13;;;;;;;66.18;37.58;;;;;;;3.96;93.89;100570.03;7401681;19;20078;-72
2022/11/24 10:47:42;;;;;;;41.25;25.33;;;;;;;4.03;93.69;100576.94;7401610;19;20015;-72
2022/11/24 10:50:21;;;;;;;38.85;24.45;;;;;;;4.11;93.72;100577.84;7400757;19;20018;-71
2022/11/24 10:52:56;;;;;;;34.85;21.52;;;;;;;4.17;93.74;100575.25;7402976;19;20018;-71
2022/11/24 10:55:25;;;;;;;31.70;20.58;;;;;;;4.22;93.46;100573.53;7400652;19;20566;-70
2022/11/24 10:58:00;;;;;;;32.25;20.67;;;;;;;4.26;93.50;100570.94;7398838;19;20011;-70
2022/11/24 11:00:35;;;;;;;32.33;21.75;;;;;;;4.30;93.46;100568.34;7400539;19;20019;-71
2022/11/24 11:03:19;;;;;;;31.55;20.98;;;;;;;4.32;93.47;100574.44;7398055;19;20028;-71
2022/11/24 11:05:54;;;;;;;33.72;21.08;;;;;;;4.38;93.42;100573.56;7399379;19;20379;-72
2022/11/24 11:08:29;;;;;;;34.20;19.48;;;;;;;4.41;93.27;100581.38;7400930;19;20017;-71
2022/11/24 11:11:24;;;;;;;42.15;26.90;;;;;;;4.45;93.08;100574.41;7399291;19;20015;-71
2022/11/24 11:13:54;;;;;;;;;;;;;;;4.50;92.98;100577.88;7402250;19;20153;-71
2022/11/24 11:16:35;;;;;;;31.45;19.45;;;;;;;4.54;92.99;100577.88;7402537;19;19935;-71
2022/11/24 11:19:06;;;;;;;29.70;18.75;;;;;;;4.56;93.00;100570.97;7399938;19;20014;-71
2022/11/24 11:21:39;;;;;;;25.05;17.08;;;;;;;4.62;93.12;100580.47;7399134;19;20497;-72
2022/11/24 11:24:16;;;;;;;30.98;18.45;;;;;;;4.67;92.92;100576.16;7397749;19;20037;-70
2022/11/24 11:26:45;;;;;;;28.98;18.65;;;;;;;4.73;92.98;100576.16;7399567;19;20010;-72
2022/11/24 11:29:21;;;;;;;28.55;18.00;;;;;;;4.78;92.91;100570.06;7399646;19;20022;-71
2022/11/24 11:32:01;;;;;;;29.80;16.98;;;;;;;4.82;92.73;100571.84;7397741;19;20041;-71